sensor_id;sensor_type;location;lat;lon;timestamp;pressure;altitude;pressure_sealevel;temperature;humidity
59009;BME280;44794;42.652;23.318;2023-04-01T00:00:04;93656.34;;;10.88;67.61
59009;BME280;44794;42.652;23.318;2023-04-01T00:02:30;93660.16;;;10.94;67.81
59009;BME280;44794;42.652;23.318;2023-04-01T00:04:56;93660.00;;;11.05;66.78
59009;BME280;44794;42.652;23.318;2023-04-01T00:07:21;93665.47;;;11.02;66.42
59009;BME280;44794;42.652;23.318;2023-04-01T00:09:47;93670.25;;;11.06;66.31
59009;BME280;44794;42.652;23.318;2023-04-01T00:12:13;93665.06;;;11.06;66.23
59009;BME280;44794;42.652;23.318;2023-04-01T00:14:38;93668.19;;;11.10;66.08
59009;BME280;44794;42.652;23.318;2023-04-01T00:17:04;93660.16;;;10.94;67.20
59009;BME280;44794;42.652;23.318;2023-04-01T00:19:30;93670.13;;;10.89;68.40
59009;BME280;44794;42.652;23.318;2023-04-01T00:21:57;93674.13;;;10.83;69.15
59009;BME280;44794;42.652;23.318;2023-04-01T00:24:23;93679.41;;;10.82;69.66
59009;BME280;44794;42.652;23.318;2023-04-01T00:26:48;93681.75;;;10.75;70.39
59009;BME280;44794;42.652;23.318;2023-04-01T00:29:14;93679.03;;;10.77;70.42
59009;BME280;44794;42.652;23.318;2023-04-01T00:31:39;93659.50;;;10.73;70.55
59009;BME280;44794;42.652;23.318;2023-04-01T00:34:05;93673.81;;;10.58;71.27
59009;BME280;44794;42.652;23.318;2023-04-01T00:36:30;93674.63;;;10.68;71.22
59009;BME280;44794;42.652;23.318;2023-04-01T00:38:57;93669.59;;;10.57;70.98
59009;BME280;44794;42.652;23.318;2023-04-01T00:41:24;93655.50;;;10.59;71.03
59009;BME280;44794;42.652;23.318;2023-04-01T00:43:51;93652.50;;;10.54;72.13
59009;BME280;44794;42.652;23.318;2023-04-01T00:46:18;93653.00;;;10.30;74.14
59009;BME280;44794;42.652;23.318;2023-04-01T00:49:01;93633.34;;;10.27;74.52
59009;BME280;44794;42.652;23.318;2023-04-01T00:51:28;93636.84;;;10.07;75.86
59009;BME280;44794;42.652;23.318;2023-04-01T00:53:56;93637.00;;;10.06;76.69
59009;BME280;44794;42.652;23.318;2023-04-01T00:56:26;93637.94;;;10.05;77.28
59009;BME280;44794;42.652;23.318;2023-04-01T00:59:00;93632.47;;;9.98;77.52
59009;BME280;44794;42.652;23.318;2023-04-01T01:01:28;93627.03;;;10.01;77.89
59009;BME280;44794;42.652;23.318;2023-04-01T01:03:55;93622.50;;;10.03;78.20
59009;BME280;44794;42.652;23.318;2023-04-01T01:06:39;93614.56;;;9.95;78.84
59009;BME280;44794;42.652;23.318;2023-04-01T01:12:05;93615.31;;;9.68;79.88
59009;BME280;44794;42.652;23.318;2023-04-01T01:15:26;93599.56;;;9.60;80.30
59009;BME280;44794;42.652;23.318;2023-04-01T01:23:42;93590.66;;;9.43;81.28
59009;BME280;44794;42.652;23.318;2023-04-01T01:37:15;93582.03;;;9.43;79.29
59009;BME280;44794;42.652;23.318;2023-04-01T01:39:44;93571.69;;;9.43;79.09
59009;BME280;44794;42.652;23.318;2023-04-01T01:42:15;93575.13;;;9.43;79.36
59009;BME280;44794;42.652;23.318;2023-04-01T01:44:43;93574.94;;;9.35;79.83
59009;BME280;44794;42.652;23.318;2023-04-01T01:47:11;93574.94;;;9.35;78.08
59009;BME280;44794;42.652;23.318;2023-04-01T01:49:38;93571.53;;;9.44;77.58
59009;BME280;44794;42.652;23.318;2023-04-01T01:52:06;93573.06;;;9.47;76.56
59009;BME280;44794;42.652;23.318;2023-04-01T01:54:31;93572.56;;;9.62;75.58
59009;BME280;44794;42.652;23.318;2023-04-01T01:57:04;93566.72;;;9.69;75.38
59009;BME280;44794;42.652;23.318;2023-04-01T01:59:33;93544.50;;;9.86;73.41
59009;BME280;44794;42.652;23.318;2023-04-01T02:02:00;93555.66;;;10.16;70.19
59009;BME280;44794;42.652;23.318;2023-04-01T02:04:37;93560.94;;;10.15;70.65
59009;BME280;44794;42.652;23.318;2023-04-01T02:07:08;93550.31;;;10.27;69.30
59009;BME280;44794;42.652;23.318;2023-04-01T02:09:36;93558.78;;;10.29;69.09
59009;BME280;44794;42.652;23.318;2023-04-01T02:12:10;93541.44;;;10.39;68.27
59009;BME280;44794;42.652;23.318;2023-04-01T02:14:57;93549.91;;;10.41;68.22
59009;BME280;44794;42.652;23.318;2023-04-01T02:17:27;93550.31;;;10.46;67.13
59009;BME280;44794;42.652;23.318;2023-04-01T02:19:57;93550.03;;;10.49;66.94
59009;BME280;44794;42.652;23.318;2023-04-01T02:22:26;93539.09;;;10.55;66.97
59009;BME280;44794;42.652;23.318;2023-04-01T02:24:58;93544.69;;;10.60;66.61
59009;BME280;44794;42.652;23.318;2023-04-01T02:27:24;93551.66;;;10.59;65.43
59009;BME280;44794;42.652;23.318;2023-04-01T02:29:51;93543.88;;;10.69;66.34
59009;BME280;44794;42.652;23.318;2023-04-01T02:32:19;93541.94;;;10.71;66.17
59009;BME280;44794;42.652;23.318;2023-04-01T02:34:46;93548.50;;;10.75;65.06
59009;BME280;44794;42.652;23.318;2023-04-01T02:37:12;93545.63;;;10.78;65.16
59009;BME280;44794;42.652;23.318;2023-04-01T02:39:38;93550.00;;;10.87;65.18
59009;BME280;44794;42.652;23.318;2023-04-01T02:42:04;93554.66;;;10.64;64.59
59009;BME280;44794;42.652;23.318;2023-04-01T02:44:30;93555.88;;;10.70;66.12
59009;BME280;44794;42.652;23.318;2023-04-01T02:46:56;93548.09;;;10.70;66.69
59009;BME280;44794;42.652;23.318;2023-04-01T02:49:21;93556.06;;;10.59;66.95
59009;BME280;44794;42.652;23.318;2023-04-01T02:51:46;93556.59;;;10.62;66.58
59009;BME280;44794;42.652;23.318;2023-04-01T02:54:12;93565.03;;;10.74;65.21
59009;BME280;44794;42.652;23.318;2023-04-01T02:56:37;93567.22;;;10.78;65.81
59009;BME280;44794;42.652;23.318;2023-04-01T02:59:03;93575.16;;;10.77;67.08
59009;BME280;44794;42.652;23.318;2023-04-01T03:01:28;93584.44;;;10.70;65.87
59009;BME280;44794;42.652;23.318;2023-04-01T03:03:54;93579.41;;;10.68;65.42
59009;BME280;44794;42.652;23.318;2023-04-01T03:06:19;93584.44;;;10.70;65.77
59009;BME280;44794;42.652;23.318;2023-04-01T03:08:44;93585.69;;;10.75;65.47
59009;BME280;44794;42.652;23.318;2023-04-01T03:11:10;93583.34;;;10.72;65.98
59009;BME280;44794;42.652;23.318;2023-04-01T03:13:36;93588.28;;;10.75;65.73
59009;BME280;44794;42.652;23.318;2023-04-01T03:16:02;93585.56;;;10.67;65.85
59009;BME280;44794;42.652;23.318;2023-04-01T03:18:27;93583.09;;;10.66;65.98
59009;BME280;44794;42.652;23.318;2023-04-01T03:20:53;93590.72;;;10.77;64.95
59009;BME280;44794;42.652;23.318;2023-04-01T03:23:18;93562.56;;;10.82;66.01
59009;BME280;44794;42.652;23.318;2023-04-01T03:25:46;93584.72;;;10.76;67.89
59009;BME280;44794;42.652;23.318;2023-04-01T03:28:12;93595.94;;;10.58;70.00
59009;BME280;44794;42.652;23.318;2023-04-01T03:30:38;93595.25;;;10.37;71.65
59009;BME280;44794;42.652;23.318;2023-04-01T03:33:04;93587.72;;;10.34;73.67
59009;BME280;44794;42.652;23.318;2023-04-01T03:35:30;93585.53;;;10.20;74.58
59009;BME280;44794;42.652;23.318;2023-04-01T03:37:55;93584.19;;;10.16;73.63
59009;BME280;44794;42.652;23.318;2023-04-01T03:40:21;93576.66;;;10.13;75.21
59009;BME280;44794;42.652;23.318;2023-04-01T03:42:46;93568.31;;;10.10;76.24
59009;BME280;44794;42.652;23.318;2023-04-01T03:45:12;93555.59;;;9.97;77.25
59009;BME280;44794;42.652;23.318;2023-04-01T03:47:39;93539.78;;;10.10;76.55
59009;BME280;44794;42.652;23.318;2023-04-01T03:50:06;93532.72;;;10.02;77.65
59009;BME280;44794;42.652;23.318;2023-04-01T03:52:31;93531.88;;;10.02;76.80
59009;BME280;44794;42.652;23.318;2023-04-01T03:54:57;93508.19;;;9.86;78.09
59009;BME280;44794;42.652;23.318;2023-04-01T03:57:22;93494.03;;;9.80;80.48
59009;BME280;44794;42.652;23.318;2023-04-01T03:59:48;93482.56;;;9.73;81.50
59009;BME280;44794;42.652;23.318;2023-04-01T04:02:13;93479.03;;;9.93;81.92
59009;BME280;44794;42.652;23.318;2023-04-01T04:04:39;93478.34;;;10.10;80.20
59009;BME280;44794;42.652;23.318;2023-04-01T04:07:05;93466.47;;;10.08;80.08
59009;BME280;44794;42.652;23.318;2023-04-01T04:09:31;93465.94;;;10.04;79.96
59009;BME280;44794;42.652;23.318;2023-04-01T04:11:57;93462.38;;;10.05;80.13
59009;BME280;44794;42.652;23.318;2023-04-01T04:14:23;93454.06;;;10.11;79.74
59009;BME280;44794;42.652;23.318;2023-04-01T04:16:48;93449.16;;;10.08;77.22
59009;BME280;44794;42.652;23.318;2023-04-01T04:19:13;93451.19;;;10.14;78.55
59009;BME280;44794;42.652;23.318;2023-04-01T04:21:40;93444.94;;;10.07;77.90
59009;BME280;44794;42.652;23.318;2023-04-01T04:24:06;93443.81;;;10.10;76.71
59009;BME280;44794;42.652;23.318;2023-04-01T04:26:31;93445.47;;;10.11;76.75
59009;BME280;44794;42.652;23.318;2023-04-01T04:28:57;93434.69;;;10.15;78.26
59009;BME280;44794;42.652;23.318;2023-04-01T04:31:24;93436.88;;;10.20;77.09
59009;BME280;44794;42.652;23.318;2023-04-01T04:33:50;93434.13;;;10.12;77.22
59009;BME280;44794;42.652;23.318;2023-04-01T04:36:16;93423.47;;;10.15;74.87
59009;BME280;44794;42.652;23.318;2023-04-01T04:38:42;93425.81;;;10.08;74.68
59009;BME280;44794;42.652;23.318;2023-04-01T04:41:14;93427.19;;;10.03;76.13
59009;BME280;44794;42.652;23.318;2023-04-01T04:43:41;93419.00;;;10.07;75.76
59009;BME280;44794;42.652;23.318;2023-04-01T04:46:10;93413.50;;;10.10;74.96
59009;BME280;44794;42.652;23.318;2023-04-01T04:48:36;93405.03;;;10.18;75.42
59009;BME280;44794;42.652;23.318;2023-04-01T04:51:02;93400.41;;;10.21;75.48
59009;BME280;44794;42.652;23.318;2023-04-01T04:53:28;93413.78;;;10.17;72.93
59009;BME280;44794;42.652;23.318;2023-04-01T04:55:54;93422.78;;;10.22;71.70
59009;BME280;44794;42.652;23.318;2023-04-01T04:58:19;93403.13;;;10.29;72.09
59009;BME280;44794;42.652;23.318;2023-04-01T05:00:45;93399.72;;;10.19;74.32
59009;BME280;44794;42.652;23.318;2023-04-01T05:03:11;93404.50;;;10.14;74.34
59009;BME280;44794;42.652;23.318;2023-04-01T05:05:37;93406.28;;;10.23;73.43
59009;BME280;44794;42.652;23.318;2023-04-01T05:08:03;93399.56;;;10.30;73.39
59009;BME280;44794;42.652;23.318;2023-04-01T05:10:29;93396.97;;;10.30;74.32
59009;BME280;44794;42.652;23.318;2023-04-01T05:12:55;93399.28;;;10.24;73.01
59009;BME280;44794;42.652;23.318;2023-04-01T05:15:21;93398.75;;;10.20;73.47
59009;BME280;44794;42.652;23.318;2023-04-01T05:17:46;93395.31;;;10.29;72.98
59009;BME280;44794;42.652;23.318;2023-04-01T05:20:13;93378.50;;;10.33;74.09
59009;BME280;44794;42.652;23.318;2023-04-01T05:22:39;93374.03;;;10.26;74.22
59009;BME280;44794;42.652;23.318;2023-04-01T05:25:05;93372.53;;;10.23;73.75
59009;BME280;44794;42.652;23.318;2023-04-01T05:27:31;93365.41;;;10.25;74.38
59009;BME280;44794;42.652;23.318;2023-04-01T05:29:57;93359.97;;;10.28;75.54
59009;BME280;44794;42.652;23.318;2023-04-01T05:32:22;93368.13;;;10.33;75.64
59009;BME280;44794;42.652;23.318;2023-04-01T05:34:51;93370.59;;;10.35;75.60
59009;BME280;44794;42.652;23.318;2023-04-01T05:37:16;93365.63;;;10.50;73.93
59009;BME280;44794;42.652;23.318;2023-04-01T05:39:42;93361.84;;;10.72;72.69
59009;BME280;44794;42.652;23.318;2023-04-01T05:42:08;93365.03;;;10.93;72.02
59009;BME280;44794;42.652;23.318;2023-04-01T05:44:34;93367.69;;;11.27;69.01
59009;BME280;44794;42.652;23.318;2023-04-01T05:47:00;93375.16;;;12.17;66.18
59009;BME280;44794;42.652;23.318;2023-04-01T05:49:26;93377.94;;;14.92;58.00
59009;BME280;44794;42.652;23.318;2023-04-01T05:51:51;93393.22;;;17.20;48.43
59009;BME280;44794;42.652;23.318;2023-04-01T05:54:17;93384.53;;;17.63;45.22
59009;BME280;44794;42.652;23.318;2023-04-01T05:56:43;93367.44;;;18.23;41.78
59009;BME280;44794;42.652;23.318;2023-04-01T05:59:11;93366.06;;;18.75;41.04
59009;BME280;44794;42.652;23.318;2023-04-01T06:01:37;93369.56;;;19.09;39.66
59009;BME280;44794;42.652;23.318;2023-04-01T06:04:03;93363.81;;;20.46;36.81
59009;BME280;44794;42.652;23.318;2023-04-01T06:06:30;93358.00;;;21.02;35.82
59009;BME280;44794;42.652;23.318;2023-04-01T06:09:17;93373.38;;;21.24;35.02
59009;BME280;44794;42.652;23.318;2023-04-01T06:12:22;93368.44;;;21.67;34.10
59009;BME280;44794;42.652;23.318;2023-04-01T06:20:04;93354.16;;;17.39;40.42
59009;BME280;44794;42.652;23.318;2023-04-01T06:39:21;93341.16;;;15.70;43.92
59009;BME280;44794;42.652;23.318;2023-04-01T06:50:24;93324.22;;;15.20;47.12
59009;BME280;44794;42.652;23.318;2023-04-01T06:53:06;93330.56;;;15.33;47.12
59009;BME280;44794;42.652;23.318;2023-04-01T06:55:42;93321.97;;;15.25;46.16
59009;BME280;44794;42.652;23.318;2023-04-01T06:58:34;93299.13;;;14.73;47.52
59009;BME280;44794;42.652;23.318;2023-04-01T07:01:04;93302.13;;;14.46;48.58
59009;BME280;44794;42.652;23.318;2023-04-01T07:03:49;93295.47;;;14.04;50.72
59009;BME280;44794;42.652;23.318;2023-04-01T07:06:30;93301.38;;;14.06;51.31
59009;BME280;44794;42.652;23.318;2023-04-01T07:09:00;93315.03;;;14.08;51.06
59009;BME280;44794;42.652;23.318;2023-04-01T07:11:29;93313.09;;;14.02;51.81
59009;BME280;44794;42.652;23.318;2023-04-01T07:14:02;93298.44;;;13.93;52.95
59009;BME280;44794;42.652;23.318;2023-04-01T07:16:43;93291.06;;;14.04;53.36
59009;BME280;44794;42.652;23.318;2023-04-01T07:19:27;93279.16;;;13.94;53.88
59009;BME280;44794;42.652;23.318;2023-04-01T07:22:04;93282.44;;;13.80;54.38
59009;BME280;44794;42.652;23.318;2023-04-01T07:24:36;93306.25;;;14.01;54.25
59009;BME280;44794;42.652;23.318;2023-04-01T07:27:03;93312.81;;;14.13;54.47
59009;BME280;44794;42.652;23.318;2023-04-01T07:29:30;93317.34;;;14.27;53.06
59009;BME280;44794;42.652;23.318;2023-04-01T07:35:03;93301.78;;;14.57;52.30
59009;BME280;44794;42.652;23.318;2023-04-01T07:38:05;93318.75;;;14.99;51.19
59009;BME280;44794;42.652;23.318;2023-04-01T07:43:42;93304.38;;;14.65;51.61
59009;BME280;44794;42.652;23.318;2023-04-01T07:57:03;93294.03;;;14.17;55.31
59009;BME280;44794;42.652;23.318;2023-04-01T08:02:23;93286.81;;;14.35;55.22
59009;BME280;44794;42.652;23.318;2023-04-01T08:05:19;93285.16;;;14.50;54.53
59009;BME280;44794;42.652;23.318;2023-04-01T08:10:52;93270.28;;;14.42;54.87
59009;BME280;44794;42.652;23.318;2023-04-01T08:13:40;93270.72;;;14.62;54.30
59009;BME280;44794;42.652;23.318;2023-04-01T08:21:58;93248.19;;;14.61;53.78
59009;BME280;44794;42.652;23.318;2023-04-01T08:24:41;93249.69;;;14.94;53.16
59009;BME280;44794;42.652;23.318;2023-04-01T08:27:19;93239.97;;;15.10;52.71
59009;BME280;44794;42.652;23.318;2023-04-01T08:29:51;93230.19;;;15.04;52.98
59009;BME280;44794;42.652;23.318;2023-04-01T08:32:28;93224.84;;;15.20;51.88
59009;BME280;44794;42.652;23.318;2023-04-01T08:37:41;93195.81;;;16.11;49.95
59009;BME280;44794;42.652;23.318;2023-04-01T08:40:43;93201.19;;;16.60;48.97
59009;BME280;44794;42.652;23.318;2023-04-01T08:54:25;93177.56;;;16.03;49.83
59009;BME280;44794;42.652;23.318;2023-04-01T09:05:42;93181.28;;;16.66;45.03
59009;BME280;44794;42.652;23.318;2023-04-01T09:37:20;93149.56;;;18.07;40.21
59009;BME280;44794;42.652;23.318;2023-04-01T09:40:09;93146.72;;;18.02;39.87
59009;BME280;44794;42.652;23.318;2023-04-01T09:42:43;93139.84;;;18.01;40.47
59009;BME280;44794;42.652;23.318;2023-04-01T09:45:37;93131.25;;;18.13;40.39
59009;BME280;44794;42.652;23.318;2023-04-01T09:48:36;93124.56;;;18.45;39.98
59009;BME280;44794;42.652;23.318;2023-04-01T10:33:38;93049.94;;;21.03;34.29
59009;BME280;44794;42.652;23.318;2023-04-01T11:01:35;93005.97;;;19.77;33.59
59009;BME280;44794;42.652;23.318;2023-04-01T11:10:46;93006.31;;;19.87;33.25
59009;BME280;44794;42.652;23.318;2023-04-01T11:22:16;93009.06;;;19.22;34.21
59009;BME280;44794;42.652;23.318;2023-04-01T11:33:22;93057.16;;;17.15;40.34
59009;BME280;44794;42.652;23.318;2023-04-01T12:03:38;93194.41;;;10.93;100.00
59009;BME280;44794;42.652;23.318;2023-04-01T12:09:25;93129.16;;;10.71;100.00
59009;BME280;44794;42.652;23.318;2023-04-01T12:14:09;93100.34;;;10.82;100.00
59009;BME280;44794;42.652;23.318;2023-04-01T12:19:35;93111.56;;;11.33;100.00
59009;BME280;44794;42.652;23.318;2023-04-01T12:29:54;93146.63;;;12.13;100.00
59009;BME280;44794;42.652;23.318;2023-04-01T12:38:43;93170.69;;;11.74;100.00
59009;BME280;44794;42.652;23.318;2023-04-01T12:41:39;93180.53;;;11.62;100.00
59009;BME280;44794;42.652;23.318;2023-04-01T12:55:29;93166.75;;;11.70;100.00
59009;BME280;44794;42.652;23.318;2023-04-01T13:04:32;93142.66;;;11.60;100.00
59009;BME280;44794;42.652;23.318;2023-04-01T13:24:30;93082.63;;;12.52;100.00
59009;BME280;44794;42.652;23.318;2023-04-01T13:27:09;93104.78;;;12.64;100.00
59009;BME280;44794;42.652;23.318;2023-04-01T13:32:37;93114.13;;;13.06;97.36
59009;BME280;44794;42.652;23.318;2023-04-01T13:41:09;93099.56;;;12.56;93.56
59009;BME280;44794;42.652;23.318;2023-04-01T13:43:45;93085.91;;;12.46;93.32
59009;BME280;44794;42.652;23.318;2023-04-01T13:49:00;93076.28;;;12.86;91.36
59009;BME280;44794;42.652;23.318;2023-04-01T13:54:33;93084.72;;;13.51;89.18
59009;BME280;44794;42.652;23.318;2023-04-01T14:03:12;93095.50;;;13.95;82.62
59009;BME280;44794;42.652;23.318;2023-04-01T14:08:35;93099.91;;;14.02;61.99
59009;BME280;44794;42.652;23.318;2023-04-01T14:11:45;93104.63;;;13.99;62.94
59009;BME280;44794;42.652;23.318;2023-04-01T14:42:53;93078.19;;;15.07;53.50
59009;BME280;44794;42.652;23.318;2023-04-01T14:45:43;93082.88;;;15.34;51.30
59009;BME280;44794;42.652;23.318;2023-04-01T14:48:32;93051.16;;;14.78;71.64
59009;BME280;44794;42.652;23.318;2023-04-01T14:51:18;93047.53;;;14.34;78.56
59009;BME280;44794;42.652;23.318;2023-04-01T14:56:49;93046.16;;;14.16;81.08
59009;BME280;44794;42.652;23.318;2023-04-01T15:18:50;93072.66;;;13.97;79.85
59009;BME280;44794;42.652;23.318;2023-04-01T15:24:14;93066.69;;;13.88;81.05
59009;BME280;44794;42.652;23.318;2023-04-01T15:27:21;93061.56;;;13.95;79.74
59009;BME280;44794;42.652;23.318;2023-04-01T15:37:48;93055.97;;;13.75;82.20
59009;BME280;44794;42.652;23.318;2023-04-01T15:40:20;93059.09;;;13.63;82.79
59009;BME280;44794;42.652;23.318;2023-04-01T15:43:19;93066.97;;;13.47;84.14
59009;BME280;44794;42.652;23.318;2023-04-01T15:51:32;93115.88;;;12.73;83.50
59009;BME280;44794;42.652;23.318;2023-04-01T16:05:51;93249.22;;;7.83;100.00
59009;BME280;44794;42.652;23.318;2023-04-01T16:08:46;93252.53;;;7.44;100.00
59009;BME280;44794;42.652;23.318;2023-04-01T16:19:34;93212.31;;;7.42;100.00
59009;BME280;44794;42.652;23.318;2023-04-01T16:24:53;93207.47;;;7.48;100.00
59009;BME280;44794;42.652;23.318;2023-04-01T16:27:29;93219.97;;;7.53;100.00
59009;BME280;44794;42.652;23.318;2023-04-01T16:35:56;93231.28;;;7.52;100.00
59009;BME280;44794;42.652;23.318;2023-04-01T16:41:37;93233.06;;;7.61;100.00
59009;BME280;44794;42.652;23.318;2023-04-01T16:44:20;93254.94;;;7.57;100.00
59009;BME280;44794;42.652;23.318;2023-04-01T16:46:52;93269.44;;;7.48;100.00
59009;BME280;44794;42.652;23.318;2023-04-01T17:00:16;93280.63;;;7.58;100.00
59009;BME280;44794;42.652;23.318;2023-04-01T17:08:28;93299.72;;;7.67;100.00
59009;BME280;44794;42.652;23.318;2023-04-01T17:14:04;93311.44;;;7.71;100.00
59009;BME280;44794;42.652;23.318;2023-04-01T17:33:31;93336.88;;;7.55;100.00
59009;BME280;44794;42.652;23.318;2023-04-01T17:35:47;93344.44;;;7.47;100.00
59009;BME280;44794;42.652;23.318;2023-04-01T17:41:53;93343.78;;;7.45;100.00
59009;BME280;44794;42.652;23.318;2023-04-01T17:44:41;93351.25;;;7.48;100.00
59009;BME280;44794;42.652;23.318;2023-04-01T17:47:41;93359.44;;;7.53;100.00
59009;BME280;44794;42.652;23.318;2023-04-01T17:58:59;93383.16;;;7.58;100.00
59009;BME280;44794;42.652;23.318;2023-04-01T18:04:18;93409.25;;;7.75;97.99
59009;BME280;44794;42.652;23.318;2023-04-01T18:20:41;93457.47;;;8.06;94.96
59009;BME280;44794;42.652;23.318;2023-04-01T18:26:02;93465.59;;;8.02;95.77
59009;BME280;44794;42.652;23.318;2023-04-01T18:28:38;93461.44;;;7.90;98.30
59009;BME280;44794;42.652;23.318;2023-04-01T18:34:00;93447.97;;;7.55;100.00
59009;BME280;44794;42.652;23.318;2023-04-01T18:39:03;93433.19;;;7.46;100.00
59009;BME280;44794;42.652;23.318;2023-04-01T18:41:43;93418.19;;;7.40;100.00
59009;BME280;44794;42.652;23.318;2023-04-01T18:44:42;93430.16;;;7.41;100.00
59009;BME280;44794;42.652;23.318;2023-04-01T18:50:24;93462.84;;;7.62;97.24
59009;BME280;44794;42.652;23.318;2023-04-01T18:53:22;93463.03;;;7.70;95.82
59009;BME280;44794;42.652;23.318;2023-04-01T18:55:56;93466.41;;;7.82;94.15
59009;BME280;44794;42.652;23.318;2023-04-01T18:58:35;93464.00;;;7.90;92.64
59009;BME280;44794;42.652;23.318;2023-04-01T19:01:13;93470.59;;;7.94;92.06
59009;BME280;44794;42.652;23.318;2023-04-01T19:06:56;93472.47;;;7.92;92.00
59009;BME280;44794;42.652;23.318;2023-04-01T19:09:42;93493.22;;;8.01;90.74
59009;BME280;44794;42.652;23.318;2023-04-01T19:12:34;93511.06;;;8.04;89.87
59009;BME280;44794;42.652;23.318;2023-04-01T19:20:46;93523.22;;;8.13;90.79
59009;BME280;44794;42.652;23.318;2023-04-01T19:26:11;93533.31;;;8.27;89.51
59009;BME280;44794;42.652;23.318;2023-04-01T19:29:00;93527.94;;;8.19;90.20
59009;BME280;44794;42.652;23.318;2023-04-01T19:34:27;93540.50;;;8.23;88.70
59009;BME280;44794;42.652;23.318;2023-04-01T19:39:41;93541.69;;;8.09;90.33
59009;BME280;44794;42.652;23.318;2023-04-01T19:42:35;93542.69;;;7.97;91.32
59009;BME280;44794;42.652;23.318;2023-04-01T19:53:22;93555.34;;;7.79;93.16
59009;BME280;44794;42.652;23.318;2023-04-01T19:58:45;93562.28;;;7.79;93.32
59009;BME280;44794;42.652;23.318;2023-04-01T20:01:28;93555.00;;;7.73;93.08
59009;BME280;44794;42.652;23.318;2023-04-01T20:04:03;93564.94;;;7.88;90.92
59009;BME280;44794;42.652;23.318;2023-04-01T20:15:02;93552.63;;;8.12;84.25
59009;BME280;44794;42.652;23.318;2023-04-01T20:20:24;93573.53;;;8.20;82.33
59009;BME280;44794;42.652;23.318;2023-04-01T20:25:38;93580.72;;;8.17;83.67
59009;BME280;44794;42.652;23.318;2023-04-01T20:28:13;93572.50;;;8.12;82.87
59009;BME280;44794;42.652;23.318;2023-04-01T20:39:43;93578.47;;;8.12;83.34
59009;BME280;44794;42.652;23.318;2023-04-01T20:51:11;93566.47;;;7.91;84.83
59009;BME280;44794;42.652;23.318;2023-04-01T20:53:51;93573.63;;;7.87;85.02
59009;BME280;44794;42.652;23.318;2023-04-01T21:07:58;93581.47;;;7.97;84.60
59009;BME280;44794;42.652;23.318;2023-04-01T21:18:49;93606.25;;;8.41;79.36
59009;BME280;44794;42.652;23.318;2023-04-01T21:21:41;93608.78;;;8.52;78.12
59009;BME280;44794;42.652;23.318;2023-04-01T21:32:59;93617.09;;;8.67;76.19
59009;BME280;44794;42.652;23.318;2023-04-01T21:35:49;93617.19;;;8.65;76.74
59009;BME280;44794;42.652;23.318;2023-04-01T21:44:14;93614.53;;;8.56;77.02
59009;BME280;44794;42.652;23.318;2023-04-01T21:52:32;93608.94;;;8.40;76.36
59009;BME280;44794;42.652;23.318;2023-04-01T22:05:40;93621.22;;;8.38;76.43
59009;BME280;44794;42.652;23.318;2023-04-01T22:11:02;93623.22;;;8.34;76.11
59009;BME280;44794;42.652;23.318;2023-04-01T22:24:57;93603.31;;;8.15;76.67
59009;BME280;44794;42.652;23.318;2023-04-01T22:32:49;93612.47;;;8.19;76.04
59009;BME280;44794;42.652;23.318;2023-04-01T22:40:58;93620.16;;;8.29;73.76
59009;BME280;44794;42.652;23.318;2023-04-01T22:43:55;93626.59;;;8.46;72.76
59009;BME280;44794;42.652;23.318;2023-04-01T22:51:50;93629.34;;;8.33;74.01
59009;BME280;44794;42.652;23.318;2023-04-01T22:59:44;93645.88;;;8.42;73.54
59009;BME280;44794;42.652;23.318;2023-04-01T23:02:27;93646.59;;;8.44;72.45
59009;BME280;44794;42.652;23.318;2023-04-01T23:04:57;93653.13;;;8.48;72.86
59009;BME280;44794;42.652;23.318;2023-04-01T23:09:53;93649.75;;;8.36;73.55
59009;BME280;44794;42.652;23.318;2023-04-01T23:12:21;93648.25;;;8.34;73.56
59009;BME280;44794;42.652;23.318;2023-04-01T23:14:49;93641.00;;;8.28;73.84
59009;BME280;44794;42.652;23.318;2023-04-01T23:20:25;93653.13;;;8.27;73.02
59009;BME280;44794;42.652;23.318;2023-04-01T23:26:21;93641.50;;;8.11;73.81
59009;BME280;44794;42.652;23.318;2023-04-01T23:28:54;93654.41;;;8.11;74.83
59009;BME280;44794;42.652;23.318;2023-04-01T23:31:30;93656.84;;;8.34;72.44
59009;BME280;44794;42.652;23.318;2023-04-01T23:36:30;93669.72;;;8.45;71.37
59009;BME280;44794;42.652;23.318;2023-04-01T23:39:05;93665.06;;;8.39;71.44
59009;BME280;44794;42.652;23.318;2023-04-01T23:41:32;93652.25;;;8.38;72.63
59009;BME280;44794;42.652;23.318;2023-04-01T23:44:02;93656.06;;;8.23;72.54
59009;BME280;44794;42.652;23.318;2023-04-01T23:46:30;93649.69;;;8.27;73.01
59009;BME280;44794;42.652;23.318;2023-04-01T23:48:57;93649.38;;;8.21;72.65
59009;BME280;44794;42.652;23.318;2023-04-01T23:51:27;93651.47;;;8.26;71.93
59009;BME280;44794;42.652;23.318;2023-04-01T23:54:18;93657.22;;;8.30;71.61
59009;BME280;44794;42.652;23.318;2023-04-01T23:56:54;93645.00;;;8.21;71.97
